sensor_id;sensor_type;location;lat;lon;timestamp;pressure;altitude;pressure_sealevel;temperature;humidity
75942;BME280;64622;46.220;19.878;2023-11-21T00:01:25;100082.09;;;3.56;100.00
75942;BME280;64622;46.220;19.878;2023-11-21T00:03:52;100086.91;;;3.51;100.00
75942;BME280;64622;46.220;19.878;2023-11-21T00:06:21;100087.41;;;3.45;100.00
75942;BME280;64622;46.220;19.878;2023-11-21T00:08:49;100099.78;;;3.33;100.00
75942;BME280;64622;46.220;19.878;2023-11-21T00:11:16;100104.47;;;3.30;100.00
75942;BME280;64622;46.220;19.878;2023-11-21T00:13:45;100097.97;;;3.34;100.00
75942;BME280;64622;46.220;19.878;2023-11-21T00:16:12;100101.47;;;3.45;100.00
75942;BME280;64622;46.220;19.878;2023-11-21T00:18:39;100099.31;;;3.50;100.00
75942;BME280;64622;46.220;19.878;2023-11-21T00:21:06;100094.84;;;3.51;100.00
75942;BME280;64622;46.220;19.878;2023-11-21T00:23:33;100102.34;;;3.57;100.00
75942;BME280;64622;46.220;19.878;2023-11-21T00:26:00;100100.78;;;3.65;100.00
75942;BME280;64622;46.220;19.878;2023-11-21T00:28:27;100094.37;;;3.79;100.00
75942;BME280;64622;46.220;19.878;2023-11-21T00:30:54;100110.63;;;3.96;100.00
75942;BME280;64622;46.220;19.878;2023-11-21T00:33:21;100098.25;;;3.97;100.00
75942;BME280;64622;46.220;19.878;2023-11-21T00:35:47;100110.50;;;4.09;100.00
75942;BME280;64622;46.220;19.878;2023-11-21T00:38:14;100099.66;;;4.12;100.00
75942;BME280;64622;46.220;19.878;2023-11-21T00:40:41;100101.44;;;4.22;100.00
75942;BME280;64622;46.220;19.878;2023-11-21T00:43:08;100113.47;;;4.26;100.00
75942;BME280;64622;46.220;19.878;2023-11-21T00:45:36;100109.22;;;4.35;100.00
75942;BME280;64622;46.220;19.878;2023-11-21T00:48:03;100107.03;;;4.40;100.00
75942;BME280;64622;46.220;19.878;2023-11-21T00:50:31;100108.84;;;4.50;100.00
75942;BME280;64622;46.220;19.878;2023-11-21T00:52:57;100115.06;;;4.60;100.00
75942;BME280;64622;46.220;19.878;2023-11-21T00:55:25;100114.31;;;4.69;100.00
75942;BME280;64622;46.220;19.878;2023-11-21T00:57:52;100113.22;;;4.72;100.00
75942;BME280;64622;46.220;19.878;2023-11-21T01:00:19;100097.03;;;4.75;100.00
75942;BME280;64622;46.220;19.878;2023-11-21T01:02:46;100088.97;;;4.76;100.00
75942;BME280;64622;46.220;19.878;2023-11-21T01:05:14;100077.28;;;4.79;100.00
75942;BME280;64622;46.220;19.878;2023-11-21T01:07:41;100085.09;;;4.80;100.00
75942;BME280;64622;46.220;19.878;2023-11-21T01:10:09;100081.59;;;4.80;100.00
75942;BME280;64622;46.220;19.878;2023-11-21T01:12:37;100085.22;;;4.79;100.00
75942;BME280;64622;46.220;19.878;2023-11-21T01:15:05;100094.63;;;4.83;100.00
75942;BME280;64622;46.220;19.878;2023-11-21T01:17:36;100095.59;;;4.82;100.00
75942;BME280;64622;46.220;19.878;2023-11-21T01:20:02;100089.94;;;4.96;100.00
75942;BME280;64622;46.220;19.878;2023-11-21T01:22:32;100072.03;;;4.88;100.00
75942;BME280;64622;46.220;19.878;2023-11-21T01:24:59;100083.38;;;4.90;100.00
75942;BME280;64622;46.220;19.878;2023-11-21T01:27:26;100079.50;;;4.94;100.00
75942;BME280;64622;46.220;19.878;2023-11-21T01:29:53;100071.97;;;4.79;100.00
75942;BME280;64622;46.220;19.878;2023-11-21T01:32:25;100066.78;;;4.77;100.00
75942;BME280;64622;46.220;19.878;2023-11-21T01:34:52;100067.34;;;4.60;100.00
75942;BME280;64622;46.220;19.878;2023-11-21T01:37:20;100058.38;;;4.52;100.00
75942;BME280;64622;46.220;19.878;2023-11-21T01:39:49;100049.91;;;4.58;100.00
75942;BME280;64622;46.220;19.878;2023-11-21T01:42:16;100039.75;;;4.63;100.00
75942;BME280;64622;46.220;19.878;2023-11-21T01:44:42;100045.41;;;4.69;100.00
75942;BME280;64622;46.220;19.878;2023-11-21T01:47:10;100032.38;;;4.66;100.00
75942;BME280;64622;46.220;19.878;2023-11-21T01:49:38;100025.28;;;4.67;100.00
75942;BME280;64622;46.220;19.878;2023-11-21T01:52:06;100032.16;;;4.69;100.00
75942;BME280;64622;46.220;19.878;2023-11-21T01:54:33;100039.38;;;4.67;100.00
75942;BME280;64622;46.220;19.878;2023-11-21T01:57:00;100021.38;;;4.71;100.00
75942;BME280;64622;46.220;19.878;2023-11-21T01:59:37;100028.19;;;4.64;100.00
75942;BME280;64622;46.220;19.878;2023-11-21T02:02:05;100025.84;;;4.50;100.00
75942;BME280;64622;46.220;19.878;2023-11-21T02:04:33;100036.81;;;4.45;100.00
75942;BME280;64622;46.220;19.878;2023-11-21T02:07:00;100026.00;;;4.37;100.00
75942;BME280;64622;46.220;19.878;2023-11-21T02:09:28;100032.75;;;4.41;100.00
75942;BME280;64622;46.220;19.878;2023-11-21T02:11:57;100026.22;;;4.45;100.00
75942;BME280;64622;46.220;19.878;2023-11-21T02:14:26;100034.53;;;4.41;100.00
75942;BME280;64622;46.220;19.878;2023-11-21T02:16:54;100025.84;;;4.50;100.00
75942;BME280;64622;46.220;19.878;2023-11-21T02:19:22;100028.25;;;4.53;100.00
75942;BME280;64622;46.220;19.878;2023-11-21T02:21:52;100016.09;;;4.50;100.00
75942;BME280;64622;46.220;19.878;2023-11-21T02:24:20;100022.94;;;4.53;100.00
75942;BME280;64622;46.220;19.878;2023-11-21T02:26:48;100023.66;;;4.55;100.00
75942;BME280;64622;46.220;19.878;2023-11-21T02:29:18;100019.38;;;4.63;100.00
75942;BME280;64622;46.220;19.878;2023-11-21T02:31:51;100013.25;;;4.63;100.00
75942;BME280;64622;46.220;19.878;2023-11-21T02:34:18;100003.00;;;4.69;100.00
75942;BME280;64622;46.220;19.878;2023-11-21T02:36:44;100013.59;;;4.69;100.00
75942;BME280;64622;46.220;19.878;2023-11-21T02:39:12;100004.53;;;4.72;100.00
75942;BME280;64622;46.220;19.878;2023-11-21T02:41:39;100007.38;;;4.59;100.00
75942;BME280;64622;46.220;19.878;2023-11-21T02:44:06;99998.25;;;4.52;100.00
75942;BME280;64622;46.220;19.878;2023-11-21T02:46:35;100002.09;;;4.48;100.00
75942;BME280;64622;46.220;19.878;2023-11-21T02:49:03;100011.44;;;4.43;100.00
75942;BME280;64622;46.220;19.878;2023-11-21T02:51:30;100009.28;;;4.37;100.00
75942;BME280;64622;46.220;19.878;2023-11-21T02:53:57;100008.31;;;4.38;100.00
75942;BME280;64622;46.220;19.878;2023-11-21T02:56:34;100019.03;;;4.36;100.00
75942;BME280;64622;46.220;19.878;2023-11-21T02:59:03;100013.72;;;4.36;100.00
75942;BME280;64622;46.220;19.878;2023-11-21T03:01:32;100008.19;;;4.39;100.00
75942;BME280;64622;46.220;19.878;2023-11-21T03:03:59;100013.94;;;4.44;100.00
75942;BME280;64622;46.220;19.878;2023-11-21T03:06:26;100006.59;;;4.48;100.00
75942;BME280;64622;46.220;19.878;2023-11-21T03:08:53;100015.97;;;4.52;100.00
75942;BME280;64622;46.220;19.878;2023-11-21T03:11:20;100014.88;;;4.54;100.00
75942;BME280;64622;46.220;19.878;2023-11-21T03:13:47;100011.38;;;4.54;100.00
75942;BME280;64622;46.220;19.878;2023-11-21T03:16:16;100009.19;;;4.59;100.00
75942;BME280;64622;46.220;19.878;2023-11-21T03:18:43;100000.97;;;4.62;100.00
75942;BME280;64622;46.220;19.878;2023-11-21T03:21:11;99991.53;;;4.69;100.00
75942;BME280;64622;46.220;19.878;2023-11-21T03:23:39;99994.63;;;4.74;100.00
75942;BME280;64622;46.220;19.878;2023-11-21T03:26:06;100000.50;;;4.77;100.00
75942;BME280;64622;46.220;19.878;2023-11-21T03:28:35;99993.13;;;4.81;100.00
75942;BME280;64622;46.220;19.878;2023-11-21T03:31:02;99998.19;;;4.84;100.00
75942;BME280;64622;46.220;19.878;2023-11-21T03:33:30;99992.75;;;4.85;100.00
75942;BME280;64622;46.220;19.878;2023-11-21T03:35:56;99999.50;;;4.89;100.00
75942;BME280;64622;46.220;19.878;2023-11-21T03:38:23;99995.22;;;4.98;100.00
75942;BME280;64622;46.220;19.878;2023-11-21T03:40:50;99987.13;;;4.99;100.00
75942;BME280;64622;46.220;19.878;2023-11-21T03:43:17;99988.28;;;5.06;100.00
75942;BME280;64622;46.220;19.878;2023-11-21T03:45:44;99983.56;;;5.19;100.00
75942;BME280;64622;46.220;19.878;2023-11-21T03:48:12;99979.44;;;5.26;100.00
75942;BME280;64622;46.220;19.878;2023-11-21T03:50:39;99972.16;;;5.28;100.00
75942;BME280;64622;46.220;19.878;2023-11-21T03:53:06;99967.00;;;5.27;100.00
75942;BME280;64622;46.220;19.878;2023-11-21T03:55:34;99977.66;;;5.36;100.00
75942;BME280;64622;46.220;19.878;2023-11-21T03:58:04;99976.00;;;5.35;100.00
75942;BME280;64622;46.220;19.878;2023-11-21T04:00:31;99976.78;;;5.26;100.00
75942;BME280;64622;46.220;19.878;2023-11-21T04:02:58;99985.72;;;5.25;100.00
75942;BME280;64622;46.220;19.878;2023-11-21T04:05:25;99986.16;;;5.30;100.00
75942;BME280;64622;46.220;19.878;2023-11-21T04:07:51;99988.53;;;5.33;100.00
75942;BME280;64622;46.220;19.878;2023-11-21T04:10:19;100002.00;;;5.41;100.00
75942;BME280;64622;46.220;19.878;2023-11-21T04:12:45;99995.88;;;5.50;100.00
75942;BME280;64622;46.220;19.878;2023-11-21T04:15:13;99996.31;;;5.55;100.00
75942;BME280;64622;46.220;19.878;2023-11-21T04:17:41;99989.34;;;5.64;100.00
75942;BME280;64622;46.220;19.878;2023-11-21T04:20:09;99997.47;;;5.72;100.00
75942;BME280;64622;46.220;19.878;2023-11-21T04:22:37;100004.53;;;5.82;100.00
75942;BME280;64622;46.220;19.878;2023-11-21T04:25:09;99996.31;;;5.86;100.00
75942;BME280;64622;46.220;19.878;2023-11-21T04:27:39;99990.69;;;5.88;100.00
75942;BME280;64622;46.220;19.878;2023-11-21T04:30:07;99993.66;;;5.95;100.00
75942;BME280;64622;46.220;19.878;2023-11-21T04:32:36;99971.28;;;5.88;100.00
75942;BME280;64622;46.220;19.878;2023-11-21T04:35:03;99974.72;;;5.79;100.00
75942;BME280;64622;46.220;19.878;2023-11-21T04:37:30;99966.59;;;5.71;100.00
75942;BME280;64622;46.220;19.878;2023-11-21T04:39:57;99971.06;;;5.70;100.00
75942;BME280;64622;46.220;19.878;2023-11-21T04:42:24;99965.09;;;5.78;100.00
75942;BME280;64622;46.220;19.878;2023-11-21T04:44:51;99973.19;;;5.76;100.00
75942;BME280;64622;46.220;19.878;2023-11-21T04:47:19;99978.50;;;5.76;100.00
75942;BME280;64622;46.220;19.878;2023-11-21T04:49:46;99983.81;;;5.76;100.00
75942;BME280;64622;46.220;19.878;2023-11-21T04:52:16;99981.16;;;5.76;100.00
75942;BME280;64622;46.220;19.878;2023-11-21T04:54:43;99972.88;;;5.79;100.00
75942;BME280;64622;46.220;19.878;2023-11-21T04:57:10;99982.16;;;5.85;100.00
75942;BME280;64622;46.220;19.878;2023-11-21T04:59:37;99976.00;;;5.84;100.00
75942;BME280;64622;46.220;19.878;2023-11-21T05:02:04;99976.72;;;5.87;100.00
75942;BME280;64622;46.220;19.878;2023-11-21T05:04:31;99974.84;;;5.77;100.00
75942;BME280;64622;46.220;19.878;2023-11-21T05:06:59;99972.88;;;5.79;100.00
75942;BME280;64622;46.220;19.878;2023-11-21T05:09:27;99979.47;;;5.75;100.00
75942;BME280;64622;46.220;19.878;2023-11-21T05:11:54;99975.53;;;5.79;100.00
75942;BME280;64622;46.220;19.878;2023-11-21T05:14:21;99981.53;;;5.72;100.00
75942;BME280;64622;46.220;19.878;2023-11-21T05:16:48;99986.03;;;5.71;100.00
75942;BME280;64622;46.220;19.878;2023-11-21T05:19:17;99977.87;;;5.54;100.00
75942;BME280;64622;46.220;19.878;2023-11-21T05:21:44;99985.66;;;5.46;100.00
75942;BME280;64622;46.220;19.878;2023-11-21T05:24:11;99977.25;;;5.41;100.00
75942;BME280;64622;46.220;19.878;2023-11-21T05:26:38;99979.53;;;5.45;100.00
75942;BME280;64622;46.220;19.878;2023-11-21T05:29:05;99974.22;;;5.45;100.00
75942;BME280;64622;46.220;19.878;2023-11-21T05:31:32;99984.31;;;5.61;100.00
75942;BME280;64622;46.220;19.878;2023-11-21T05:33:59;99990.47;;;5.61;100.00
75942;BME280;64622;46.220;19.878;2023-11-21T05:36:26;99993.91;;;5.52;100.00
75942;BME280;64622;46.220;19.878;2023-11-21T05:38:53;99984.41;;;5.50;100.00
75942;BME280;64622;46.220;19.878;2023-11-21T05:41:19;99994.34;;;5.48;100.00
75942;BME280;64622;46.220;19.878;2023-11-21T05:43:46;99999.03;;;5.44;100.00
75942;BME280;64622;46.220;19.878;2023-11-21T05:46:13;100015.41;;;5.49;100.00
75942;BME280;64622;46.220;19.878;2023-11-21T05:48:40;100013.34;;;5.53;100.00
75942;BME280;64622;46.220;19.878;2023-11-21T05:51:07;100018.25;;;5.57;100.00
75942;BME280;64622;46.220;19.878;2023-11-21T05:53:34;100023.87;;;5.64;100.00
75942;BME280;64622;46.220;19.878;2023-11-21T05:56:02;100036.34;;;5.73;100.00
75942;BME280;64622;46.220;19.878;2023-11-21T05:58:31;100028.75;;;5.68;100.00
75942;BME280;64622;46.220;19.878;2023-11-21T06:00:57;100032.72;;;5.74;100.00
75942;BME280;64622;46.220;19.878;2023-11-21T06:03:25;100030.47;;;5.79;100.00
75942;BME280;64622;46.220;19.878;2023-11-21T06:05:51;100031.22;;;5.81;100.00
75942;BME280;64622;46.220;19.878;2023-11-21T06:08:18;100039.22;;;5.91;100.00
75942;BME280;64622;46.220;19.878;2023-11-21T06:10:45;100046.78;;;5.95;100.00
75942;BME280;64622;46.220;19.878;2023-11-21T06:13:15;100040.34;;;5.97;100.00
75942;BME280;64622;46.220;19.878;2023-11-21T06:15:43;100043.00;;;5.97;100.00
75942;BME280;64622;46.220;19.878;2023-11-21T06:18:10;100043.31;;;6.04;100.00
75942;BME280;64622;46.220;19.878;2023-11-21T06:20:38;100037.56;;;6.08;100.00
75942;BME280;64622;46.220;19.878;2023-11-21T06:23:04;100039.12;;;6.11;100.00
75942;BME280;64622;46.220;19.878;2023-11-21T06:25:32;100035.34;;;6.13;100.00
75942;BME280;64622;46.220;19.878;2023-11-21T06:28:02;100050.34;;;6.24;100.00
75942;BME280;64622;46.220;19.878;2023-11-21T06:30:29;100041.25;;;6.27;100.00
75942;BME280;64622;46.220;19.878;2023-11-21T06:32:56;100045.03;;;6.24;100.00
75942;BME280;64622;46.220;19.878;2023-11-21T06:35:23;100051.59;;;6.20;100.00
75942;BME280;64622;46.220;19.878;2023-11-21T06:37:49;100050.91;;;6.18;100.00
75942;BME280;64622;46.220;19.878;2023-11-21T06:40:18;100068.22;;;6.22;100.00
75942;BME280;64622;46.220;19.878;2023-11-21T06:42:45;100071.72;;;6.22;100.00
75942;BME280;64622;46.220;19.878;2023-11-21T06:45:13;100076.19;;;6.22;100.00
75942;BME280;64622;46.220;19.878;2023-11-21T06:47:41;100077.72;;;6.15;100.00
75942;BME280;64622;46.220;19.878;2023-11-21T06:50:09;100067.66;;;6.09;100.00
75942;BME280;64622;46.220;19.878;2023-11-21T06:52:35;100077.47;;;6.18;100.00
75942;BME280;64622;46.220;19.878;2023-11-21T06:55:03;100080.81;;;6.11;100.00
75942;BME280;64622;46.220;19.878;2023-11-21T06:57:31;100094.91;;;6.11;100.00
75942;BME280;64622;46.220;19.878;2023-11-21T06:59:59;100104.56;;;6.12;100.00
75942;BME280;64622;46.220;19.878;2023-11-21T07:02:26;100099.41;;;6.20;100.00
75942;BME280;64622;46.220;19.878;2023-11-21T07:04:54;100108.81;;;6.24;100.00
75942;BME280;64622;46.220;19.878;2023-11-21T07:07:21;100101.41;;;6.37;100.00
75942;BME280;64622;46.220;19.878;2023-11-21T07:09:48;100103.41;;;6.54;100.00
75942;BME280;64622;46.220;19.878;2023-11-21T07:12:15;100102.59;;;6.63;100.00
75942;BME280;64622;46.220;19.878;2023-11-21T07:14:42;100109.44;;;6.75;100.00
75942;BME280;64622;46.220;19.878;2023-11-21T07:17:11;100104.41;;;6.82;100.00
75942;BME280;64622;46.220;19.878;2023-11-21T07:19:39;100094.59;;;6.82;100.00
75942;BME280;64622;46.220;19.878;2023-11-21T07:22:05;100100.75;;;6.82;100.00
75942;BME280;64622;46.220;19.878;2023-11-21T07:24:33;100099.78;;;6.93;100.00
75942;BME280;64622;46.220;19.878;2023-11-21T07:27:00;100107.22;;;6.99;100.00
75942;BME280;64622;46.220;19.878;2023-11-21T07:29:27;100101.59;;;7.02;100.00
75942;BME280;64622;46.220;19.878;2023-11-21T07:31:56;100105.37;;;7.09;100.00
75942;BME280;64622;46.220;19.878;2023-11-21T07:34:23;100103.28;;;7.12;100.00
75942;BME280;64622;46.220;19.878;2023-11-21T07:36:49;100103.12;;;7.14;100.00
75942;BME280;64622;46.220;19.878;2023-11-21T07:39:16;100107.19;;;7.18;100.00
75942;BME280;64622;46.220;19.878;2023-11-21T07:41:43;100107.75;;;7.22;100.00
75942;BME280;64622;46.220;19.878;2023-11-21T07:44:18;100127.19;;;7.22;100.00
75942;BME280;64622;46.220;19.878;2023-11-21T07:46:47;100123.31;;;7.17;100.00
75942;BME280;64622;46.220;19.878;2023-11-21T07:49:14;100126.66;;;7.18;100.00
75942;BME280;64622;46.220;19.878;2023-11-21T07:51:46;100122.44;;;7.16;100.00
75942;BME280;64622;46.220;19.878;2023-11-21T07:54:13;100124.53;;;7.22;100.00
75942;BME280;64622;46.220;19.878;2023-11-21T07:56:40;100128.47;;;7.28;100.00
75942;BME280;64622;46.220;19.878;2023-11-21T07:59:07;100133.66;;;7.29;100.00
75942;BME280;64622;46.220;19.878;2023-11-21T08:01:34;100138.00;;;7.30;100.00
75942;BME280;64622;46.220;19.878;2023-11-21T08:04:02;100141.91;;;7.36;100.00
75942;BME280;64622;46.220;19.878;2023-11-21T08:06:30;100139.94;;;7.37;100.00
75942;BME280;64622;46.220;19.878;2023-11-21T08:08:57;100135.16;;;7.41;100.00
75942;BME280;64622;46.220;19.878;2023-11-21T08:11:25;100129.13;;;7.48;100.00
75942;BME280;64622;46.220;19.878;2023-11-21T08:13:53;100105.44;;;7.55;100.00
75942;BME280;64622;46.220;19.878;2023-11-21T08:16:20;100081.19;;;7.58;100.00
75942;BME280;64622;46.220;19.878;2023-11-21T08:18:48;100068.97;;;7.65;100.00
75942;BME280;64622;46.220;19.878;2023-11-21T08:21:15;100070.03;;;7.72;100.00
75942;BME280;64622;46.220;19.878;2023-11-21T08:23:41;100082.94;;;7.77;100.00
75942;BME280;64622;46.220;19.878;2023-11-21T08:26:08;100080.09;;;7.78;100.00
75942;BME280;64622;46.220;19.878;2023-11-21T08:28:35;100079.16;;;7.79;100.00
75942;BME280;64622;46.220;19.878;2023-11-21T08:31:02;100067.09;;;7.75;100.00
75942;BME280;64622;46.220;19.878;2023-11-21T08:33:29;100073.94;;;7.78;100.00
75942;BME280;64622;46.220;19.878;2023-11-21T08:35:56;100076.31;;;7.80;100.00
75942;BME280;64622;46.220;19.878;2023-11-21T08:38:23;100059.91;;;7.85;100.00
75942;BME280;64622;46.220;19.878;2023-11-21T08:40:50;100041.78;;;7.88;100.00
75942;BME280;64622;46.220;19.878;2023-11-21T08:43:17;100044.00;;;7.93;100.00
75942;BME280;64622;46.220;19.878;2023-11-21T08:45:46;100035.44;;;7.99;100.00
75942;BME280;64622;46.220;19.878;2023-11-21T08:48:14;100045.16;;;8.08;100.00
75942;BME280;64622;46.220;19.878;2023-11-21T08:50:41;100037.03;;;8.09;100.00
75942;BME280;64622;46.220;19.878;2023-11-21T08:53:08;100046.03;;;8.08;100.00
75942;BME280;64622;46.220;19.878;2023-11-21T08:55:35;100031.16;;;8.06;100.00
75942;BME280;64622;46.220;19.878;2023-11-21T08:58:03;100035.81;;;8.04;100.00
75942;BME280;64622;46.220;19.878;2023-11-21T09:00:33;100028.50;;;8.06;100.00
75942;BME280;64622;46.220;19.878;2023-11-21T09:03:02;100025.00;;;8.05;100.00
75942;BME280;64622;46.220;19.878;2023-11-21T09:05:29;100036.22;;;8.09;100.00
75942;BME280;64622;46.220;19.878;2023-11-21T09:07:56;100030.87;;;8.09;100.00
75942;BME280;64622;46.220;19.878;2023-11-21T09:10:23;100028.03;;;8.10;100.00
75942;BME280;64622;46.220;19.878;2023-11-21T09:12:51;100015.28;;;8.14;100.00
75942;BME280;64622;46.220;19.878;2023-11-21T09:15:18;100017.47;;;8.18;100.00
75942;BME280;64622;46.220;19.878;2023-11-21T09:17:47;100008.50;;;8.19;100.00
75942;BME280;64622;46.220;19.878;2023-11-21T09:20:15;99979.31;;;8.18;100.00
75942;BME280;64622;46.220;19.878;2023-11-21T09:22:42;99971.31;;;8.18;100.00
75942;BME280;64622;46.220;19.878;2023-11-21T09:25:13;99988.72;;;8.22;100.00
75942;BME280;64622;46.220;19.878;2023-11-21T09:27:40;99997.44;;;8.24;100.00
75942;BME280;64622;46.220;19.878;2023-11-21T09:30:07;99990.97;;;8.27;100.00
75942;BME280;64622;46.220;19.878;2023-11-21T09:32:38;99977.78;;;8.25;100.00
75942;BME280;64622;46.220;19.878;2023-11-21T09:35:05;99970.59;;;8.26;100.00
75942;BME280;64622;46.220;19.878;2023-11-21T09:37:34;99972.13;;;8.28;100.00
75942;BME280;64622;46.220;19.878;2023-11-21T09:40:06;99967.34;;;8.32;100.00
75942;BME280;64622;46.220;19.878;2023-11-21T09:42:48;99963.53;;;8.34;100.00
75942;BME280;64622;46.220;19.878;2023-11-21T09:45:32;99967.72;;;8.37;100.00
75942;BME280;64622;46.220;19.878;2023-11-21T09:48:01;99978.91;;;8.40;100.00
75942;BME280;64622;46.220;19.878;2023-11-21T09:50:29;99966.56;;;8.39;100.00
75942;BME280;64622;46.220;19.878;2023-11-21T09:53:18;99962.22;;;8.38;100.00
75942;BME280;64622;46.220;19.878;2023-11-21T09:55:50;99971.97;;;8.47;100.00
75942;BME280;64622;46.220;19.878;2023-11-21T09:58:19;99965.34;;;8.51;100.00
75942;BME280;64622;46.220;19.878;2023-11-21T10:00:48;99971.34;;;8.53;100.00
75942;BME280;64622;46.220;19.878;2023-11-21T10:03:15;99966.38;;;8.58;100.00
75942;BME280;64622;46.220;19.878;2023-11-21T10:05:43;99976.75;;;8.61;100.00
75942;BME280;64622;46.220;19.878;2023-11-21T10:08:12;99960.91;;;8.60;100.00
75942;BME280;64622;46.220;19.878;2023-11-21T10:10:44;99947.56;;;8.60;100.00
75942;BME280;64622;46.220;19.878;2023-11-21T10:13:12;99946.94;;;8.66;100.00
75942;BME280;64622;46.220;19.878;2023-11-21T10:15:43;99940.63;;;8.67;100.00
75942;BME280;64622;46.220;19.878;2023-11-21T10:18:15;99943.13;;;8.68;100.00
75942;BME280;64622;46.220;19.878;2023-11-21T10:20:43;99941.47;;;8.67;100.00
75942;BME280;64622;46.220;19.878;2023-11-21T10:23:13;99941.47;;;8.67;100.00
75942;BME280;64622;46.220;19.878;2023-11-21T10:25:41;99942.47;;;8.66;100.00
75942;BME280;64622;46.220;19.878;2023-11-21T10:28:09;99944.81;;;8.69;100.00
75942;BME280;64622;46.220;19.878;2023-11-21T10:30:38;99936.12;;;8.67;100.00
75942;BME280;64622;46.220;19.878;2023-11-21T10:33:05;99928.62;;;8.71;100.00
75942;BME280;64622;46.220;19.878;2023-11-21T10:38:08;99925.53;;;8.75;100.00
75942;BME280;64622;46.220;19.878;2023-11-21T10:40:41;99923.53;;;8.77;100.00
75942;BME280;64622;46.220;19.878;2023-11-21T10:43:09;99917.66;;;8.74;100.00
75942;BME280;64622;46.220;19.878;2023-11-21T10:45:37;99923.38;;;8.79;100.00
75942;BME280;64622;46.220;19.878;2023-11-21T10:48:09;99918.88;;;8.79;100.00
75942;BME280;64622;46.220;19.878;2023-11-21T10:50:37;99902.50;;;8.74;100.00
75942;BME280;64622;46.220;19.878;2023-11-21T10:53:05;99899.50;;;8.77;100.00
75942;BME280;64622;46.220;19.878;2023-11-21T10:55:32;99892.34;;;8.78;100.00
75942;BME280;64622;46.220;19.878;2023-11-21T10:58:01;99892.03;;;8.81;100.00
75942;BME280;64622;46.220;19.878;2023-11-21T11:00:29;99889.19;;;8.82;100.00
75942;BME280;64622;46.220;19.878;2023-11-21T11:02:56;99891.88;;;8.82;100.00
75942;BME280;64622;46.220;19.878;2023-11-21T11:05:26;99895.06;;;8.86;100.00
75942;BME280;64622;46.220;19.878;2023-11-21T11:08:00;99895.41;;;8.91;100.00
75942;BME280;64622;46.220;19.878;2023-11-21T11:10:29;99891.78;;;8.92;100.00
75942;BME280;64622;46.220;19.878;2023-11-21T11:12:58;99881.41;;;8.89;100.00
75942;BME280;64622;46.220;19.878;2023-11-21T11:15:26;99891.44;;;8.95;100.00
75942;BME280;64622;46.220;19.878;2023-11-21T11:17:54;99887.78;;;8.96;100.00
75942;BME280;64622;46.220;19.878;2023-11-21T11:20:29;99889.28;;;8.98;100.00
75942;BME280;64622;46.220;19.878;2023-11-21T11:34:32;99864.13;;;9.01;100.00
75942;BME280;64622;46.220;19.878;2023-11-21T11:37:06;99867.12;;;8.98;100.00
75942;BME280;64622;46.220;19.878;2023-11-21T11:39:40;99862.78;;;8.97;100.00
75942;BME280;64622;46.220;19.878;2023-11-21T11:42:17;99860.78;;;8.99;100.00
75942;BME280;64622;46.220;19.878;2023-11-21T11:47:28;99852.94;;;8.97;100.00
75942;BME280;64622;46.220;19.878;2023-11-21T11:50:12;99849.59;;;8.95;100.00
75942;BME280;64622;46.220;19.878;2023-11-21T11:52:42;99851.56;;;8.93;100.00
75942;BME280;64622;46.220;19.878;2023-11-21T11:55:11;99846.56;;;8.90;100.00
75942;BME280;64622;46.220;19.878;2023-11-21T11:57:42;99847.59;;;8.97;100.00
75942;BME280;64622;46.220;19.878;2023-11-21T12:02:49;99856.59;;;8.96;100.00
75942;BME280;64622;46.220;19.878;2023-11-21T12:05:18;99863.75;;;8.96;100.00
75942;BME280;64622;46.220;19.878;2023-11-21T12:10:17;99863.94;;;8.94;100.00
75942;BME280;64622;46.220;19.878;2023-11-21T12:15:41;99864.09;;;8.93;100.00
75942;BME280;64622;46.220;19.878;2023-11-21T12:18:08;99855.87;;;8.86;100.00
75942;BME280;64622;46.220;19.878;2023-11-21T12:20:35;99861.72;;;8.90;100.00
75942;BME280;64622;46.220;19.878;2023-11-21T12:23:05;99863.41;;;8.91;100.00
75942;BME280;64622;46.220;19.878;2023-11-21T12:25:32;99865.41;;;8.89;100.00
75942;BME280;64622;46.220;19.878;2023-11-21T12:28:01;99857.53;;;8.87;100.00
75942;BME280;64622;46.220;19.878;2023-11-21T12:30:30;99848.34;;;8.82;100.00
75942;BME280;64622;46.220;19.878;2023-11-21T12:32:59;99853.84;;;8.80;100.00
75942;BME280;64622;46.220;19.878;2023-11-21T12:35:28;99854.66;;;8.81;100.00
75942;BME280;64622;46.220;19.878;2023-11-21T12:37:57;99850.47;;;8.78;100.00
75942;BME280;64622;46.220;19.878;2023-11-21T12:40:23;99859.62;;;8.76;100.00
75942;BME280;64622;46.220;19.878;2023-11-21T12:42:55;99873.53;;;8.79;100.00
75942;BME280;64622;46.220;19.878;2023-11-21T12:45:27;99868.78;;;8.73;100.00
75942;BME280;64622;46.220;19.878;2023-11-21T12:47:56;99869.66;;;8.74;100.00
75942;BME280;64622;46.220;19.878;2023-11-21T12:50:28;99860.78;;;8.73;100.00
75942;BME280;64622;46.220;19.878;2023-11-21T12:53:03;99856.59;;;8.71;100.00
75942;BME280;64622;46.220;19.878;2023-11-21T12:55:32;99853.28;;;8.69;100.00
75942;BME280;64622;46.220;19.878;2023-11-21T12:58:05;99862.13;;;8.69;100.00
75942;BME280;64622;46.220;19.878;2023-11-21T13:00:46;99854.56;;;8.65;100.00
75942;BME280;64622;46.220;19.878;2023-11-21T13:03:16;99861.56;;;8.66;100.00
75942;BME280;64622;46.220;19.878;2023-11-21T13:05:48;99863.44;;;8.65;100.00
75942;BME280;64622;46.220;19.878;2023-11-21T13:08:18;99876.91;;;8.64;100.00
75942;BME280;64622;46.220;19.878;2023-11-21T13:10:51;99866.88;;;8.58;100.00
75942;BME280;64622;46.220;19.878;2023-11-21T13:13:18;99869.41;;;8.59;100.00
75942;BME280;64622;46.220;19.878;2023-11-21T13:15:55;99880.88;;;8.60;100.00